Time;durP1;ratioP1;P1;durP2;ratioP2;P2;SDS_P1;SDS_P2;PMS_P1;PMS_P2;Temp;Humidity;BMP_temperature;BMP_pressure;BME280_temperature;BME280_humidity;BME280_pressure;Samples;Min_cycle;Max_cycle;Signal;HPM_P1;HPM_P2
2023/09/06 00:00:45;;;;;;;8.00;2.60;;;24.50;42.20;;;;;;5011372;28;20186;-68
2023/09/06 00:03:14;;;;;;;11.70;2.80;;;24.30;40.70;;;;;;5011684;28;20197;-67
2023/09/06 00:05:43;;;;;;;9.77;3.00;;;24.40;41.50;;;;;;4993473;28;20608;-68
2023/09/06 00:08:14;;;;;;;15.83;3.73;;;24.70;40.60;;;;;;5011675;28;20182;-67
2023/09/06 00:10:44;;;;;;;11.53;3.30;;;25.10;38.50;;;;;;5010654;28;20214;-67
2023/09/06 00:13:13;;;;;;;12.77;3.13;;;25.10;38.40;;;;;;4993419;28;20193;-67
2023/09/06 00:15:40;;;;;;;8.63;2.70;;;25.10;36.80;;;;;;5011863;28;20181;-67
2023/09/06 00:18:08;;;;;;;13.97;2.67;;;25.20;39.40;;;;;;5011698;28;20178;-70
2023/09/06 00:23:58;;;;;;;6.53;2.83;;;25.40;40.30;;;;;;5002589;28;20264;-68
2023/09/06 00:26:26;;;;;;;13.80;3.00;;;25.50;41.00;;;;;;5011646;28;20293;-69
2023/09/06 00:28:54;;;;;;;6.47;2.67;;;25.60;37.60;;;;;;5011168;28;20189;-69
2023/09/06 00:31:21;;;;;;;15.03;2.30;;;25.50;39.90;;;;;;5011425;28;20253;-69
2023/09/06 00:33:49;;;;;;;4.27;1.70;;;25.70;33.50;;;;;;5011702;28;20174;-68
2023/09/06 00:36:16;;;;;;;5.30;2.03;;;26.20;27.50;;;;;;5010943;28;20189;-68
2023/09/06 00:38:43;;;;;;;5.53;2.13;;;25.80;27.40;;;;;;5010529;28;20209;-68
2023/09/06 00:41:11;;;;;;;6.53;1.63;;;25.80;28.20;;;;;;5010998;28;20226;-69
2023/09/06 00:43:38;;;;;;;8.77;2.20;;;26.00;28.10;;;;;;5010996;28;20638;-69
2023/09/06 00:46:08;;;;;;;8.27;1.90;;;26.20;27.60;;;;;;5011167;28;20256;-67
2023/09/06 00:48:35;;;;;;;8.53;2.23;;;26.20;26.10;;;;;;5010954;28;20240;-68
2023/09/06 00:51:04;;;;;;;8.50;1.50;;;26.20;26.80;;;;;;5010986;28;20300;-68
2023/09/06 00:53:33;;;;;;;5.50;1.50;;;26.10;25.90;;;;;;5011462;28;20182;-68
2023/09/06 00:56:03;;;;;;;14.00;1.80;;;25.80;26.30;;;;;;5011145;28;20213;-68
2023/09/06 00:58:32;;;;;;;7.10;1.83;;;26.50;26.10;;;;;;5010689;28;20296;-68
2023/09/06 01:01:00;;;;;;;9.77;1.60;;;26.20;24.90;;;;;;5011473;28;20265;-68
2023/09/06 01:03:27;;;;;;;7.63;1.40;;;25.70;25.70;;;;;;4993701;28;20182;-67
2023/09/06 01:06:04;;;;;;;5.57;1.40;;;26.40;26.80;;;;;;5010426;28;20722;-67
2023/09/06 01:08:46;;;;;;;6.20;1.53;;;27.10;24.30;;;;;;5013804;28;20624;-68
2023/09/06 01:11:22;;;;;;;12.90;1.83;;;26.90;22.50;;;;;;5015105;28;20209;-69
2023/09/06 01:13:51;;;;;;;5.50;1.67;;;26.20;23.80;;;;;;4996935;28;20192;-69
2023/09/06 01:16:29;;;;;;;7.90;1.73;;;26.60;27.90;;;;;;5014160;28;20196;-69
2023/09/06 01:18:56;;;;;;;4.50;1.50;;;26.30;22.90;;;;;;5014430;28;20178;-68
2023/09/06 01:21:36;;;;;;;5.73;1.60;;;26.80;22.30;;;;;;5014957;28;20185;-68
2023/09/06 01:24:05;;;;;;;4.60;1.40;;;27.30;23.00;;;;;;5014043;28;20244;-68
2023/09/06 01:26:33;;;;;;;4.57;1.20;;;26.80;21.80;;;;;;5013400;28;20201;-68
2023/09/06 01:29:00;;;;;;;5.87;1.60;;;25.80;22.30;;;;;;5013845;28;20186;-68
2023/09/06 01:31:28;;;;;;;7.93;1.47;;;26.00;22.40;;;;;;5014280;28;20220;-68
2023/09/06 01:33:55;;;;;;;11.47;1.77;;;26.50;22.30;;;;;;5013870;28;20188;-67
2023/09/06 01:36:22;;;;;;;5.63;2.03;;;26.90;21.70;;;;;;5013958;28;20181;-67
2023/09/06 01:38:51;;;;;;;8.03;1.97;;;26.40;21.80;;;;;;5014046;28;20272;-69
2023/09/06 01:41:18;;;;;;;3.20;1.37;;;27.10;20.40;;;;;;5013597;28;20214;-68
2023/09/06 01:43:46;;;;;;;4.40;1.30;;;27.60;22.00;;;;;;5013563;28;20207;-68
2023/09/06 01:46:13;;;;;;;5.10;1.13;;;27.50;19.90;;;;;;5013607;28;20217;-69
2023/09/06 01:48:40;;;;;;;6.93;1.20;;;27.10;19.70;;;;;;5013800;28;20185;-69
2023/09/06 01:51:08;;;;;;;5.73;1.30;;;26.90;17.00;;;;;;5014178;28;20226;-69
2023/09/06 01:53:35;;;;;;;4.53;1.40;;;27.30;20.20;;;;;;5014077;28;20694;-69
2023/09/06 01:56:04;;;;;;;8.10;1.50;;;27.90;15.70;;;;;;5013425;28;20197;-68
2023/09/06 01:58:32;;;;;;;5.67;1.27;;;27.30;17.10;;;;;;4994171;28;20661;-69
2023/09/06 02:01:07;;;;;;;3.90;1.37;;;26.90;15.80;;;;;;5000609;28;20236;-69
2023/09/06 02:03:35;;;;;;;2.07;0.80;;;27.00;14.10;;;;;;5013437;28;20181;-69
2023/09/06 02:06:03;;;;;;;7.50;1.10;;;27.30;14.10;;;;;;5013792;28;20648;-69
2023/09/06 02:08:32;;;;;;;5.63;1.20;;;27.70;15.40;;;;;;5013611;28;20190;-68
2023/09/06 02:10:59;;;;;;;6.93;1.77;;;28.20;13.70;;;;;;5015101;28;20276;-69
2023/09/06 02:13:26;;;;;;;7.27;2.53;;;27.80;11.40;;;;;;5015018;28;20178;-68
2023/09/06 02:15:53;;;;;;;5.07;2.87;;;27.80;14.00;;;;;;5015204;28;20182;-69
2023/09/06 02:18:21;;;;;;;5.30;1.07;;;27.90;9.10;;;;;;5014598;28;20647;-69
2023/09/06 02:20:50;;;;;;;9.00;1.60;;;27.50;7.10;;;;;;5014737;28;20188;-68
2023/09/06 02:23:17;;;;;;;3.67;0.93;;;27.40;7.60;;;;;;5014569;28;20524;-69
2023/09/06 02:25:44;;;;;;;3.50;1.10;;;27.50;7.90;;;;;;5014373;28;20268;-68
2023/09/06 02:28:11;;;;;;;5.23;1.10;;;27.60;8.00;;;;;;5014493;28;20241;-68
2023/09/06 02:30:41;;;;;;;5.63;1.50;;;27.30;5.50;;;;;;5013606;28;20276;-69
2023/09/06 02:33:10;;;;;;;6.43;1.80;;;27.20;4.60;;;;;;5013663;28;20186;-69
2023/09/06 02:35:40;;;;;;;6.13;1.00;;;26.40;4.90;;;;;;5014323;28;20193;-69
2023/09/06 02:38:11;;;;;;;7.20;1.87;;;26.50;4.30;;;;;;5014871;28;20236;-68
2023/09/06 02:40:42;;;;;;;9.60;2.30;;;25.90;4.90;;;;;;5015544;28;20204;-69
2023/09/06 02:43:13;;;;;;;11.30;1.23;;;26.40;5.10;;;;;;5014844;28;20186;-69
2023/09/06 02:45:49;;;;;;;3.83;1.43;;;26.60;4.70;;;;;;5014467;28;20193;-70
2023/09/06 02:48:18;;;;;;;6.20;1.23;;;26.70;2.60;;;;;;5014768;28;20184;-70
2023/09/06 02:50:45;;;;;;;4.67;1.40;;;27.20;2.50;;;;;;5013658;28;20213;-69
2023/09/06 02:53:32;;;;;;;2.93;1.30;;;27.40;1.90;;;;;;5013638;28;20188;-69
2023/09/06 02:55:59;;;;;;;4.50;1.00;;;27.30;2.80;;;;;;4994540;28;20189;-70
2023/09/06 02:58:28;;;;;;;4.27;0.87;;;27.00;2.90;;;;;;4994488;28;20230;-70
2023/09/06 03:00:57;;;;;;;7.27;1.40;;;26.90;4.20;;;;;;4991003;28;20189;-67
2023/09/06 03:03:28;;;;;;;2.73;1.00;;;27.10;2.40;;;;;;5011635;28;20632;-68
2023/09/06 03:06:03;;;;;;;2.97;1.00;;;27.10;2.70;;;;;;5011162;28;20315;-68
2023/09/06 03:08:31;;;;;;;4.97;0.90;;;27.90;3.80;;;;;;5011868;28;20199;-68
2023/09/06 03:10:58;;;;;;;3.87;1.43;;;27.90;2.70;;;;;;5011931;28;20248;-68
2023/09/06 03:13:25;;;;;;;5.57;1.17;;;27.70;2.00;;;;;;5011680;28;20209;-67
2023/09/06 03:15:53;;;;;;;1.73;0.60;;;26.90;2.10;;;;;;5011076;28;20182;-68
2023/09/06 03:18:21;;;;;;;5.73;1.20;;;27.30;2.10;;;;;;5011984;28;20232;-67
2023/09/06 03:20:48;;;;;;;5.23;1.03;;;27.60;1.00;;;;;;5011935;28;20252;-67
2023/09/06 03:23:18;;;;;;;2.93;1.10;;;27.30;1.00;;;;;;5011133;28;20192;-68
2023/09/06 03:25:47;;;;;;;3.07;1.17;;;27.50;1.00;;;;;;5011021;28;20186;-69
2023/09/06 03:28:18;;;;;;;1.23;0.80;;;27.80;1.40;;;;;;5008845;28;20522;-67
2023/09/06 03:30:46;;;;;;;5.57;0.70;;;27.30;1.00;;;;;;5010585;28;20704;-69
2023/09/06 03:33:13;;;;;;;2.23;1.07;;;27.50;1.00;;;;;;5012012;28;20281;-68
2023/09/06 03:35:50;;;;;;;2.23;1.10;;;27.90;1.50;;;;;;5012597;28;20265;-68
2023/09/06 03:38:17;;;;;;;3.40;0.90;;;28.20;1.00;;;;;;5011713;28;20217;-68
2023/09/06 03:40:49;;;;;;;2.50;0.93;;;26.90;1.00;;;;;;5012486;28;20663;-68
2023/09/06 03:43:19;;;;;;;2.80;1.30;;;26.60;1.00;;;;;;4990427;28;20194;-68
2023/09/06 03:45:51;;;;;;;5.50;1.00;;;26.70;1.00;;;;;;5011363;28;20725;-68
2023/09/06 03:48:20;;;;;;;1.87;0.83;;;27.00;1.00;;;;;;5011095;28;20690;-69
2023/09/06 03:50:52;;;;;;;5.50;1.93;;;26.90;1.00;;;;;;5010620;28;20253;-68
2023/09/06 03:53:19;;;;;;;2.40;0.90;;;27.10;1.00;;;;;;5011558;28;20186;-68
2023/09/06 03:55:47;;;;;;;12.43;1.90;;;27.50;1.00;;;;;;5011209;28;20185;-70
2023/09/06 03:58:14;;;;;;;5.17;1.07;;;27.40;1.00;;;;;;4992620;28;20226;-69
2023/09/06 04:00:44;;;;;;;9.03;1.83;;;27.40;1.00;;;;;;5014949;28;20213;-67
2023/09/06 04:03:12;;;;;;;4.40;1.10;;;26.50;1.00;;;;;;5011034;28;20185;-68
2023/09/06 04:05:40;;;;;;;1.37;0.90;;;26.20;1.00;;;;;;4993055;28;20328;-69
2023/09/06 04:08:09;;;;;;;13.63;1.97;;;26.80;1.00;;;;;;5010691;28;20209;-68
2023/09/06 04:10:36;;;;;;;5.27;1.30;;;27.30;1.00;;;;;;5011151;28;20212;-68
2023/09/06 04:13:05;;;;;;;6.20;0.97;;;27.60;1.00;;;;;;5010652;28;20514;-69
2023/09/06 04:15:35;;;;;;;2.57;1.20;;;27.70;1.00;;;;;;5011286;28;20550;-68
2023/09/06 04:18:05;;;;;;;7.00;1.27;;;27.80;1.00;;;;;;5011221;28;20190;-68
2023/09/06 04:20:40;;;;;;;1.73;0.87;;;27.90;1.00;;;;;;5011159;28;20588;-68
2023/09/06 04:23:14;;;;;;;5.83;1.10;;;27.90;1.00;;;;;;5011075;28;20208;-67
2023/09/06 04:25:44;;;;;;;4.93;1.07;;;27.60;1.00;;;;;;5011238;28;20174;-67
2023/09/06 04:28:21;;;;;;;9.37;1.20;;;26.90;1.00;;;;;;5010397;28;20178;-67
2023/09/06 04:30:49;;;;;;;6.13;0.80;;;26.80;1.00;;;;;;5011327;28;20209;-67
2023/09/06 04:33:16;;;;;;;1.43;0.70;;;26.80;1.00;;;;;;5012179;28;20186;-66
2023/09/06 04:35:48;;;;;;;6.30;1.47;;;26.80;1.00;;;;;;5011443;28;20529;-67
2023/09/06 04:38:20;;;;;;;3.10;0.90;;;26.90;1.00;;;;;;5012381;28;20178;-68
2023/09/06 04:40:48;;;;;;;5.17;0.80;;;26.70;1.00;;;;;;4994777;28;20281;-68
2023/09/06 04:43:17;;;;;;;2.40;1.13;;;26.90;1.00;;;;;;5016299;28;20205;-67
2023/09/06 04:45:45;;;;;;;7.23;3.07;;;27.10;1.00;;;;;;5016643;28;20178;-67
2023/09/06 04:48:17;;;;;;;7.77;2.50;;;25.90;9.80;;;;;;5016118;28;20170;-67
2023/09/06 04:50:45;;;;;;;10.47;3.63;;;25.80;12.80;;;;;;4998849;28;20271;-68
2023/09/06 04:53:17;;;;;;;5.20;3.10;;;25.70;17.90;;;;;;5016305;28;20257;-67
2023/09/06 04:55:44;;;;;;;7.90;3.60;;;25.70;20.00;;;;;;4998402;28;20189;-68
2023/09/06 04:58:12;;;;;;;12.27;3.80;;;25.40;22.20;;;;;;5016056;28;20898;-67
2023/09/06 05:00:43;;;;;;;11.83;3.77;;;25.10;25.70;;;;;;5000872;28;20197;-65
2023/09/06 05:03:11;;;;;;;9.53;3.70;;;24.80;26.90;;;;;;5016452;28;20251;-65
2023/09/06 05:05:42;;;;;;;6.70;4.60;;;24.60;32.30;;;;;;5016055;28;20556;-65
2023/09/06 05:08:10;;;;;;;8.47;4.47;;;24.40;37.80;;;;;;5016378;28;20178;-65
2023/09/06 05:10:37;;;;;;;9.13;4.23;;;24.30;39.70;;;;;;5016080;28;20216;-65
2023/09/06 05:13:07;;;;;;;7.37;4.37;;;24.20;44.00;;;;;;5016117;28;20167;-65
2023/09/06 05:15:39;;;;;;;12.23;4.83;;;24.30;47.00;;;;;;5015944;28;20188;-64
2023/09/06 05:18:10;;;;;;;11.53;5.00;;;24.10;47.10;;;;;;5016176;28;20533;-64
2023/09/06 05:20:39;;;;;;;11.57;5.87;;;24.00;49.40;;;;;;5015905;28;20603;-64
2023/09/06 05:23:12;;;;;;;10.80;7.03;;;24.00;50.10;;;;;;5015579;28;20659;-64
2023/09/06 05:25:40;;;;;;;11.50;6.60;;;24.00;50.00;;;;;;5015499;28;20182;-64
2023/09/06 05:28:12;;;;;;;14.53;6.90;;;23.80;49.60;;;;;;4998182;28;20236;-64
2023/09/06 05:30:40;;;;;;;10.67;6.53;;;23.70;49.20;;;;;;5016081;28;20241;-64
2023/09/06 05:33:09;;;;;;;12.93;7.27;;;23.40;52.10;;;;;;5016000;28;20166;-64
2023/09/06 05:35:37;;;;;;;16.33;7.67;;;23.40;55.00;;;;;;5016044;28;20178;-65
2023/09/06 05:38:05;;;;;;;20.13;7.37;;;23.40;53.30;;;;;;5016139;28;20702;-65
2023/09/06 05:40:34;;;;;;;9.83;6.43;;;23.70;47.90;;;;;;5016062;28;20265;-66
2023/09/06 05:43:03;;;;;;;16.23;7.13;;;23.80;44.10;;;;;;5015769;28;20189;-65
2023/09/06 05:45:31;;;;;;;18.53;10.10;;;23.70;43.20;;;;;;5015974;28;20170;-65
2023/09/06 05:47:58;;;;;;;15.73;9.73;;;23.80;45.50;;;;;;5016016;28;20190;-64
2023/09/06 05:50:30;;;;;;;16.00;10.60;;;23.60;44.10;;;;;;5015970;28;20202;-66
2023/09/06 05:52:57;;;;;;;24.43;13.27;;;23.50;44.70;;;;;;5015127;28;20240;-66
2023/09/06 05:55:24;;;;;;;20.23;13.27;;;23.30;46.20;;;;;;5015741;28;20170;-66
2023/09/06 05:57:51;;;;;;;32.47;20.47;;;23.30;46.50;;;;;;5015615;28;20261;-66
2023/09/06 06:00:21;;;;;;;30.17;16.87;;;23.30;47.90;;;;;;5015662;28;20186;-65
2023/09/06 06:02:50;;;;;;;29.93;15.93;;;23.20;48.40;;;;;;5015564;28;20193;-66
2023/09/06 06:05:18;;;;;;;21.37;12.17;;;23.00;48.40;;;;;;5015526;28;20190;-66
2023/09/06 06:07:46;;;;;;;16.37;9.67;;;22.80;50.30;;;;;;5015811;28;20174;-65
2023/09/06 06:10:14;;;;;;;19.87;8.80;;;22.70;50.90;;;;;;5015490;28;20263;-65
2023/09/06 06:12:41;;;;;;;17.87;10.10;;;22.40;50.60;;;;;;5015485;28;20182;-66
2023/09/06 06:15:14;;;;;;;21.43;11.13;;;22.40;51.60;;;;;;5015378;28;20178;-65
2023/09/06 06:17:42;;;;;;;20.27;12.03;;;22.40;50.90;;;;;;5015351;28;20185;-65
2023/09/06 06:20:10;;;;;;;25.30;13.13;;;22.30;51.10;;;;;;5015508;28;20572;-66
2023/09/06 06:22:39;;;;;;;25.20;12.70;;;22.30;51.00;;;;;;4997782;28;20685;-66
2023/09/06 06:25:10;;;;;;;21.87;12.83;;;22.30;51.70;;;;;;5015136;28;20182;-64
2023/09/06 06:27:38;;;;;;;21.73;13.03;;;22.20;52.40;;;;;;5015199;28;20304;-65
2023/09/06 06:30:07;;;;;;;26.00;14.00;;;22.10;53.10;;;;;;5015311;28;20182;-64
2023/09/06 06:32:35;;;;;;;24.47;12.93;;;22.00;54.20;;;;;;5015160;28;20175;-64
2023/09/06 06:35:05;;;;;;;23.33;13.40;;;21.80;56.90;;;;;;5015101;28;20174;-64
2023/09/06 06:37:34;;;;;;;21.87;13.10;;;21.80;59.30;;;;;;5014978;28;20189;-65
2023/09/06 06:40:02;;;;;;;21.40;13.00;;;21.70;60.30;;;;;;5015053;28;20170;-64
2023/09/06 06:42:34;;;;;;;26.83;14.33;;;21.50;62.70;;;;;;5014801;28;20193;-65
2023/09/06 06:45:03;;;;;;;23.83;13.73;;;21.40;65.40;;;;;;5014967;28;20588;-65
2023/09/06 06:47:30;;;;;;;22.97;13.83;;;21.30;68.30;;;;;;5014803;28;20194;-65
2023/09/06 06:50:05;;;;;;;23.67;13.57;;;21.20;72.60;;;;;;5014898;28;20256;-65
2023/09/06 06:52:35;;;;;;;23.87;14.23;;;21.20;74.70;;;;;;5014750;28;20188;-65
2023/09/06 06:55:06;;;;;;;22.93;14.33;;;21.20;78.40;;;;;;5014724;28;20318;-64
2023/09/06 06:57:35;;;;;;;20.17;13.47;;;21.20;79.50;;;;;;5014797;28;20269;-65
2023/09/06 07:00:11;;;;;;;24.33;15.73;;;21.10;83.50;;;;;;5014939;28;20170;-66
2023/09/06 07:02:39;;;;;;;25.17;16.07;;;20.90;84.40;;;;;;5014449;28;20191;-66
2023/09/06 07:05:06;;;;;;;21.80;15.53;;;20.80;86.60;;;;;;5014399;28;20186;-65
2023/09/06 07:07:33;;;;;;;25.37;16.37;;;20.60;89.50;;;;;;5014515;28;20248;-67
2023/09/06 07:10:01;;;;;;;24.13;17.03;;;20.50;91.40;;;;;;5014419;28;20178;-65
2023/09/06 07:12:29;;;;;;;31.87;19.43;;;20.40;93.90;;;;;;5014908;28;20233;-65
2023/09/06 07:14:56;;;;;;;33.07;21.67;;;20.20;97.90;;;;;;4996600;28;20514;-65
2023/09/06 07:17:23;;;;;;;32.17;21.07;;;20.00;99.90;;;;;;5014145;28;20174;-65
2023/09/06 07:19:50;;;;;;;34.50;22.03;;;19.70;99.90;;;;;;5014228;28;20228;-65
2023/09/06 07:22:18;;;;;;;34.37;21.70;;;19.50;99.90;;;;;;5014142;28;20312;-67
2023/09/06 07:24:45;;;;;;;35.57;21.10;;;19.40;99.90;;;;;;5013908;28;20583;-64
2023/09/06 07:27:13;;;;;;;28.83;20.47;;;19.30;99.90;;;;;;5014273;28;20177;-64
2023/09/06 07:29:40;;;;;;;34.77;20.43;;;19.20;99.90;;;;;;5014022;28;20523;-65
2023/09/06 07:32:07;;;;;;;29.83;20.77;;;19.00;99.90;;;;;;5013865;28;20217;-66
2023/09/06 07:34:34;;;;;;;29.47;19.70;;;18.90;99.90;;;;;;5014288;28;20185;-66
2023/09/06 07:37:02;;;;;;;32.20;19.50;;;18.80;99.90;;;;;;5013916;28;20185;-65
2023/09/06 07:39:29;;;;;;;31.00;18.00;;;18.70;99.90;;;;;;5013890;28;20244;-65
2023/09/06 07:41:57;;;;;;;32.23;20.57;;;18.60;99.90;;;;;;5013785;28;20229;-65
2023/09/06 07:44:24;;;;;;;30.07;18.63;;;18.50;99.90;;;;;;5013528;28;20261;-65
2023/09/06 07:46:51;;;;;;;32.13;19.23;;;18.50;99.90;;;;;;5013707;28;20305;-66
2023/09/06 07:49:19;;;;;;;26.30;18.27;;;18.40;99.90;;;;;;5013592;28;20192;-65
2023/09/06 07:51:46;;;;;;;30.90;19.07;;;18.40;99.90;;;;;;5013837;28;20310;-65
2023/09/06 07:54:14;;;;;;;27.20;16.67;;;18.30;99.90;;;;;;5013464;28;20209;-68
2023/09/06 07:56:42;;;;;;;30.77;16.27;;;18.20;99.90;;;;;;5013703;28;20189;-67
2023/09/06 07:59:10;;;;;;;24.77;14.50;;;18.10;99.90;;;;;;4995614;28;20320;-65
2023/09/06 08:01:37;;;;;;;23.13;13.97;;;18.00;99.90;;;;;;4996270;28;20585;-65
2023/09/06 08:04:05;;;;;;;22.97;13.60;;;18.00;99.90;;;;;;5013266;28;20171;-66
2023/09/06 08:06:32;;;;;;;20.13;12.20;;;18.00;99.90;;;;;;5013644;28;20514;-65
2023/09/06 08:08:59;;;;;;;25.10;12.20;;;18.00;99.90;;;;;;5013530;28;20170;-65
2023/09/06 08:11:27;;;;;;;24.10;12.67;;;17.90;99.90;;;;;;5013297;28;20247;-65
2023/09/06 08:13:54;;;;;;;21.27;12.00;;;17.90;99.90;;;;;;5013801;28;20177;-65
2023/09/06 08:16:21;;;;;;;17.80;11.97;;;17.80;99.90;;;;;;5013007;28;20651;-65
2023/09/06 08:18:48;;;;;;;21.17;13.00;;;17.60;99.90;;;;;;5013433;28;20539;-65
2023/09/06 08:21:16;;;;;;;18.77;11.27;;;17.50;99.90;;;;;;5013202;28;20356;-65
2023/09/06 08:23:43;;;;;;;24.90;11.00;;;17.50;99.90;;;;;;5013142;28;20200;-67
2023/09/06 08:26:11;;;;;;;18.53;9.83;;;17.50;99.90;;;;;;5013167;28;20561;-65
2023/09/06 08:28:38;;;;;;;18.97;10.03;;;17.40;99.90;;;;;;5013100;28;20191;-65
2023/09/06 08:31:06;;;;;;;17.57;9.03;;;17.40;99.90;;;;;;5013325;28;20177;-65
2023/09/06 08:33:34;;;;;;;17.30;7.83;;;17.30;99.90;;;;;;5012135;28;20181;-65
2023/09/06 08:36:01;;;;;;;16.23;7.40;;;17.30;99.90;;;;;;5013351;28;20189;-66
2023/09/06 08:38:28;;;;;;;14.50;7.43;;;17.30;99.90;;;;;;5013187;28;20199;-68
2023/09/06 08:40:55;;;;;;;16.97;7.80;;;17.30;99.90;;;;;;5013077;28;20224;-66
2023/09/06 08:43:27;;;;;;;14.60;6.90;;;17.30;99.90;;;;;;5012970;28;20200;-66
2023/09/06 08:45:55;;;;;;;16.10;6.87;;;17.20;99.90;;;;;;5013248;28;20261;-66
2023/09/06 08:48:23;;;;;;;16.40;6.37;;;17.00;99.90;;;;;;5013243;28;20280;-66
2023/09/06 08:50:50;;;;;;;10.77;6.50;;;16.90;99.90;;;;;;5013178;28;20236;-66
2023/09/06 08:53:19;;;;;;;16.03;7.63;;;16.90;99.90;;;;;;5013051;28;20272;-66
2023/09/06 08:55:46;;;;;;;12.77;6.10;;;16.80;99.90;;;;;;5013027;28;20257;-66
2023/09/06 08:58:14;;;;;;;15.93;6.47;;;16.80;99.90;;;;;;5012870;28;20721;-67
2023/09/06 09:00:43;;;;;;;11.27;5.50;;;16.70;99.90;;;;;;5012910;28;20205;-66
2023/09/06 09:03:10;;;;;;;13.67;6.50;;;16.60;99.90;;;;;;5012953;28;20174;-65
2023/09/06 09:05:38;;;;;;;7.53;4.33;;;16.50;99.90;;;;;;5012837;28;20185;-66
2023/09/06 09:08:05;;;;;;;18.13;5.53;;;16.40;99.90;;;;;;5012794;28;20178;-66
2023/09/06 09:10:33;;;;;;;9.33;3.90;;;16.30;99.90;;;;;;5013020;28;20540;-67
2023/09/06 09:13:01;;;;;;;9.07;3.53;;;16.40;99.90;;;;;;5012888;28;20190;-65
2023/09/06 09:15:32;;;;;;;11.63;3.50;;;16.30;99.90;;;;;;5012839;28;20174;-65
2023/09/06 09:18:09;;;;;;;7.20;3.40;;;16.40;99.90;;;;;;5013351;28;20698;-66
2023/09/06 09:20:40;;;;;;;11.83;3.90;;;16.20;99.90;;;;;;5012993;28;20674;-66
2023/09/06 09:23:16;;;;;;;9.63;3.73;;;16.10;99.90;;;;;;5012680;28;20645;-65
2023/09/06 09:25:50;;;;;;;10.20;3.63;;;16.10;99.90;;;;;;5012935;28;20173;-65
2023/09/06 09:28:18;;;;;;;11.33;3.63;;;15.90;99.90;;;;;;5013519;28;20173;-66
2023/09/06 09:30:49;;;;;;;7.03;2.70;;;15.90;99.90;;;;;;5016436;28;20293;-66
2023/09/06 09:33:16;;;;;;;12.90;3.93;;;15.90;99.90;;;;;;5016394;28;20171;-65
2023/09/06 09:35:45;;;;;;;7.93;3.10;;;15.90;99.90;;;;;;5016405;28;20182;-66
2023/09/06 09:38:12;;;;;;;6.13;2.60;;;15.90;99.90;;;;;;5016086;28;20194;-66
2023/09/06 09:40:40;;;;;;;7.53;3.20;;;15.80;99.90;;;;;;5016259;28;20210;-66
2023/09/06 09:43:07;;;;;;;9.27;3.00;;;15.70;99.90;;;;;;5016025;28;20181;-66
2023/09/06 09:45:45;;;;;;;8.97;3.23;;;15.60;99.90;;;;;;5016550;28;20264;-64
2023/09/06 09:48:13;;;;;;;6.90;2.70;;;15.50;99.90;;;;;;5016176;28;20178;-66
2023/09/06 09:50:42;;;;;;;7.53;3.13;;;15.40;99.90;;;;;;5016047;28;20265;-66
2023/09/06 09:53:10;;;;;;;12.57;3.30;;;15.30;99.90;;;;;;5016175;28;20185;-66
2023/09/06 09:55:46;;;;;;;8.20;2.93;;;15.20;99.90;;;;;;5015721;28;20256;-64
2023/09/06 09:58:13;;;;;;;5.83;2.83;;;15.10;99.90;;;;;;5015747;28;20829;-68
2023/09/06 10:00:41;;;;;;;13.53;2.97;;;15.00;99.90;;;;;;5015892;28;20208;-66
2023/09/06 10:03:10;;;;;;;10.07;3.07;;;14.90;99.90;;;;;;5015710;28;20177;-66
2023/09/06 10:05:38;;;;;;;8.23;3.03;;;14.80;99.90;;;;;;4997867;28;20205;-64
2023/09/06 10:08:10;;;;;;;8.13;3.10;;;14.70;99.90;;;;;;5015696;28;20635;-65
2023/09/06 10:10:42;;;;;;;7.47;2.90;;;14.70;99.90;;;;;;5016055;28;20178;-65
2023/09/06 10:13:09;;;;;;;9.93;2.77;;;14.60;99.90;;;;;;5015794;28;20213;-64
2023/09/06 10:15:38;;;;;;;6.40;2.63;;;14.70;99.90;;;;;;5015819;28;20260;-67
2023/09/06 10:18:07;;;;;;;7.77;2.97;;;14.70;99.90;;;;;;5015734;28;20178;-64
2023/09/06 10:20:35;;;;;;;6.47;3.17;;;14.60;99.90;;;;;;5015970;28;20215;-66
2023/09/06 10:23:05;;;;;;;10.83;3.27;;;14.60;99.90;;;;;;5015373;28;20170;-65
2023/09/06 10:25:37;;;;;;;6.80;3.23;;;14.50;99.90;;;;;;5015335;28;20192;-64
2023/09/06 10:28:05;;;;;;;8.40;3.10;;;14.40;99.90;;;;;;5015572;28;20185;-66
2023/09/06 10:30:44;;;;;;;9.63;2.60;;;14.30;99.90;;;;;;5015539;28;20266;-66
2023/09/06 10:33:33;;;;;;;12.10;2.90;;;14.30;99.90;;;;;;5015907;28;20190;-66
2023/09/06 10:36:07;;;;;;;6.10;2.60;;;14.30;99.90;;;;;;5015323;28;20277;-66
2023/09/06 10:38:58;;;;;;;7.37;2.73;;;14.20;99.90;;;;;;5015349;28;20221;-64
2023/09/06 10:41:28;;;;;;;11.73;3.07;;;14.10;99.90;;;;;;5014968;28;20217;-64
2023/09/06 10:44:00;;;;;;;12.70;3.50;;;14.00;99.90;;;;;;5015095;28;20177;-66
2023/09/06 10:46:35;;;;;;;7.60;3.27;;;14.00;99.90;;;;;;5015028;28;20582;-66
2023/09/06 10:49:19;;;;;;;7.30;2.60;;;13.90;99.90;;;;;;5015123;28;20672;-66
2023/09/06 10:52:04;;;;;;;9.30;3.07;;;13.90;99.90;;;;;;5015088;28;20174;-67
2023/09/06 10:54:43;;;;;;;11.07;3.07;;;13.80;99.90;;;;;;5014895;28;20188;-65
2023/09/06 10:57:11;;;;;;;6.17;2.70;;;13.80;99.90;;;;;;5014969;28;20189;-65
2023/09/06 10:59:40;;;;;;;7.77;2.93;;;13.70;99.90;;;;;;5014813;28;20233;-64
2023/09/06 11:02:16;;;;;;;11.03;3.77;;;13.70;99.90;;;;;;5014514;28;20221;-66
2023/09/06 11:04:44;;;;;;;7.93;3.93;;;13.70;99.90;;;;;;5014908;28;20185;-66
2023/09/06 11:07:11;;;;;;;8.97;3.23;;;13.60;99.90;;;;;;5014741;28;20185;-65
2023/09/06 11:09:50;;;;;;;5.60;3.67;;;13.50;99.90;;;;;;5014727;28;20192;-65
2023/09/06 11:12:17;;;;;;;10.33;3.23;;;13.50;99.90;;;;;;5015314;28;20232;-64
2023/09/06 11:14:54;;;;;;;8.80;3.23;;;13.40;99.90;;;;;;5014535;28;20631;-64
2023/09/06 11:17:22;;;;;;;8.37;3.70;;;13.40;99.90;;;;;;5014595;28;20181;-64
2023/09/06 11:19:50;;;;;;;9.30;3.50;;;13.30;99.90;;;;;;5014594;28;20178;-64
2023/09/06 11:22:18;;;;;;;12.40;3.70;;;13.30;99.90;;;;;;5014274;28;20213;-65
2023/09/06 11:24:46;;;;;;;5.77;3.73;;;13.20;99.90;;;;;;5014261;28;20181;-64
2023/09/06 11:27:20;;;;;;;7.63;3.63;;;13.10;99.90;;;;;;5014325;28;20634;-64
2023/09/06 11:29:57;;;;;;;7.33;3.90;;;13.10;99.90;;;;;;4996690;28;20178;-65
2023/09/06 11:32:26;;;;;;;6.93;3.60;;;13.00;99.90;;;;;;4996539;28;20533;-65
2023/09/06 11:34:53;;;;;;;6.50;3.73;;;12.90;99.90;;;;;;5014056;28;20177;-65
2023/09/06 11:37:21;;;;;;;12.17;4.30;;;12.90;99.90;;;;;;5013979;28;20682;-65
2023/09/06 11:39:49;;;;;;;9.03;3.90;;;12.80;99.90;;;;;;5013922;28;20666;-65
2023/09/06 11:42:19;;;;;;;9.47;4.70;;;12.80;99.90;;;;;;5014149;28;20224;-65
2023/09/06 11:44:50;;;;;;;10.33;4.93;;;12.80;99.90;;;;;;5013849;28;20213;-64
2023/09/06 11:47:19;;;;;;;11.60;5.63;;;12.70;99.90;;;;;;5014124;28;20177;-66
2023/09/06 11:49:49;;;;;;;11.80;6.03;;;12.70;99.90;;;;;;5014392;28;20179;-65
2023/09/06 11:52:20;;;;;;;17.00;7.10;;;12.60;99.90;;;;;;5013232;28;20182;-65
2023/09/06 11:54:52;;;;;;;14.10;7.20;;;12.60;99.90;;;;;;5013766;28;20548;-68
2023/09/06 11:57:26;;;;;;;13.40;6.67;;;12.60;99.90;;;;;;5013695;28;20204;-65
2023/09/06 11:59:57;;;;;;;10.83;6.13;;;12.50;99.90;;;;;;5013860;28;20182;-65
2023/09/06 12:02:34;;;;;;;15.00;6.17;;;12.50;99.90;;;;;;5013771;28;20304;-64
2023/09/06 12:05:09;;;;;;;11.77;6.27;;;12.50;99.90;;;;;;5013726;28;20540;-64
2023/09/06 12:07:37;;;;;;;12.43;6.67;;;12.40;99.90;;;;;;5013780;28;20190;-65
2023/09/06 12:10:06;;;;;;;15.17;6.33;;;12.40;99.90;;;;;;5013786;28;20185;-65
2023/09/06 12:12:45;;;;;;;16.30;7.37;;;12.30;99.90;;;;;;5013438;28;20193;-67
2023/09/06 12:15:22;;;;;;;19.23;8.07;;;12.30;99.90;;;;;;5013524;28;20181;-65
2023/09/06 12:17:52;;;;;;;15.63;7.70;;;12.20;99.90;;;;;;5013829;28;20177;-65
2023/09/06 12:20:24;;;;;;;12.33;7.13;;;12.20;99.90;;;;;;5011648;28;20188;-67
2023/09/06 12:22:53;;;;;;;14.83;7.53;;;12.20;99.90;;;;;;5010608;28;20265;-65
2023/09/06 12:25:23;;;;;;;15.17;6.87;;;12.20;99.90;;;;;;4983918;28;20193;-66
2023/09/06 12:27:55;;;;;;;11.83;6.57;;;12.10;99.90;;;;;;4991283;28;20208;-65
2023/09/06 12:30:23;;;;;;;9.93;6.27;;;12.00;99.90;;;;;;5011667;28;20196;-66
2023/09/06 12:32:51;;;;;;;15.73;7.03;;;12.00;99.90;;;;;;5011553;28;20184;-66
2023/09/06 12:35:18;;;;;;;15.40;6.90;;;11.90;99.90;;;;;;5011723;28;20191;-65
2023/09/06 12:37:46;;;;;;;11.07;6.53;;;11.90;99.90;;;;;;5011558;28;20184;-66
2023/09/06 12:40:13;;;;;;;15.90;7.43;;;11.80;99.90;;;;;;5011299;28;20269;-66
2023/09/06 12:42:48;;;;;;;19.57;7.43;;;11.80;99.90;;;;;;5011616;28;20184;-65
2023/09/06 12:45:27;;;;;;;13.77;6.87;;;11.80;99.90;;;;;;5012048;28;20191;-66
2023/09/06 12:47:55;;;;;;;16.33;7.10;;;11.70;99.90;;;;;;5011647;28;20581;-67
2023/09/06 12:50:23;;;;;;;16.30;7.37;;;11.70;99.90;;;;;;5011628;28;20187;-66
2023/09/06 12:52:52;;;;;;;17.33;7.30;;;11.70;99.90;;;;;;5011906;28;20205;-65
2023/09/06 12:55:20;;;;;;;15.63;7.83;;;11.60;99.90;;;;;;5012207;28;20176;-66